Flight Sim Network - SBBV Airport Info

    SBBV (Atlas Brasil Cantanhede Airport)  Login to use Map Selector
   

  RUNWAY INFORMATION    |    Airport Elevation : 276ft    |    LAT : 2.84138894081  /  LON : -60.6922225952
Runway Number 8 / 26 Runway Width 148' Runway Length 8858'
Lighted Runway No Runway StatusOpen Runway Surface Asphalt
  CLOSE ALTERNATE AIRPORTS
ICAODistanceAirport NameLongest RWRW SurfaceMAP
SYLT63NMLethem Airport6200FTGrass
SYMP64NMMountain Point Airport4000FTDirt
SWQI66NMCaracaraí Airport8202FTGrass
SYLP80NMLumid Pau Airport4000FTOther
SYAH85NMAishalton Airport3002FTDirt
SWMU88NMSumuru Airport3281FTAsphalt
SYAW90NMAwaruwaunau Airport3002FTDirt
SB0B97NMNovo Paraiso7054FTAsphalt
SYKR99NMKaranambo Airport4500FTOther
SVSE106NMSanta Elena de Uairen Airport5445FTGravel
  AIRPORT WEATHER
80°F | 27°C
Temperature
78%
Humidity
29" | 0mb
Pressure
6sm
Visibility
VFR
Flight Rules
FEW @ 800ft
Initial Clouds
FAIR
Conditions
Wind Info
7/23/24 17:00Z
Updated

SBBV 231700Z 31003KT 9999 FEW008 SCT020 FEW030TCU 27/23 Q1015
  AIRPORT FREQUENCIES
NameFrequency
GROUND121.700
TOWER118.100
APPROACH120.100
DEPARTURE120.100
IBV (RWY 8)109.300

Powered by Virtual Airlines Manager